createdAt,value
2022-09-09T00:04:48.811Z,4.20
2022-09-09T00:10:01.741Z,4.07
2022-09-09T00:15:14.043Z,5.22
2022-09-09T00:20:31.227Z,3.80
2022-09-09T00:25:42.601Z,4.88
2022-09-09T00:30:50.041Z,4.13
2022-09-09T00:35:57.134Z,5.47
2022-09-09T00:41:08.638Z,5.10
2022-09-09T00:46:52.588Z,6.70
2022-09-09T00:52:06.513Z,4.10
2022-09-09T00:57:21.347Z,4.60
2022-09-09T01:02:32.701Z,4.82
2022-09-09T01:07:42.178Z,4.95
2022-09-09T01:12:49.394Z,3.75
2022-09-09T01:18:01.448Z,3.90
2022-09-09T01:23:29.075Z,4.50
2022-09-09T01:28:38.056Z,4.22
2022-09-09T01:33:41.670Z,3.67
2022-09-09T01:38:45.829Z,3.90
2022-09-09T01:43:52.946Z,5.00
2022-09-09T01:49:00.369Z,3.85
2022-09-09T01:54:04.914Z,3.75
2022-09-09T01:59:26.773Z,4.00
2022-09-09T02:04:39.983Z,3.35
2022-09-09T02:09:48.297Z,3.50
2022-09-09T02:15:13.798Z,3.55
2022-09-09T02:20:17.902Z,3.10
2022-09-09T02:25:26.644Z,3.97
2022-09-09T02:30:36.370Z,3.78
2022-09-09T02:35:41.148Z,4.80
2022-09-09T02:40:44.632Z,5.38
2022-09-09T02:46:02.528Z,4.82
2022-09-09T02:51:11.413Z,5.10
2022-09-09T02:56:18.625Z,5.20
2022-09-09T03:01:26.823Z,5.30
2022-09-09T03:06:30.255Z,8.80
2022-09-09T03:11:34.548Z,6.03
2022-09-09T03:16:39.452Z,4.82
2022-09-09T03:26:46.869Z,5.15
2022-09-09T03:31:52.413Z,7.63
2022-09-09T03:36:56.860Z,5.63
2022-09-09T03:42:00.318Z,5.30
2022-09-09T03:47:06.084Z,6.03
2022-09-09T03:52:11.040Z,4.85
2022-09-09T03:57:17.710Z,4.00
2022-09-09T04:02:25.608Z,5.03
2022-09-09T04:07:29.587Z,3.92
2022-09-09T04:12:33.119Z,3.45
2022-09-09T04:17:38.654Z,2.17
2022-09-09T04:22:42.121Z,3.35
2022-09-09T04:27:45.911Z,2.05
2022-09-09T04:32:51.361Z,2.63
2022-09-09T04:37:54.670Z,3.20
2022-09-09T04:43:00.073Z,3.95
2022-09-09T04:48:05.106Z,5.10
2022-09-09T04:58:14.556Z,5.03
2022-09-09T05:03:19.553Z,2.20
2022-09-09T05:08:23.934Z,3.95
2022-09-09T05:13:28.638Z,4.38
2022-09-09T05:18:33.403Z,4.53
2022-09-09T05:23:36.943Z,5.38
2022-09-09T05:28:42.508Z,3.40
2022-09-09T05:33:50.471Z,1.70
2022-09-09T05:38:54.868Z,2.28
2022-09-09T05:44:00.122Z,2.58
2022-09-09T05:49:06.607Z,1.77
2022-09-09T05:54:09.977Z,1.92
2022-09-09T06:04:19.071Z,1.85
2022-09-09T06:09:24.326Z,2.05
2022-09-09T06:14:28.415Z,2.08
2022-09-09T06:19:33.199Z,1.60
2022-09-09T06:24:36.712Z,1.67
2022-09-09T06:29:40.098Z,1.73
2022-09-09T06:34:45.001Z,2.10
2022-09-09T06:39:52.342Z,2.20
2022-09-09T06:44:55.940Z,1.92
2022-09-09T06:50:01.124Z,1.83
2022-09-09T06:55:04.891Z,1.60
2022-09-09T07:00:11.332Z,2.83
2022-09-09T07:05:17.118Z,2.00
2022-09-09T07:10:20.564Z,1.60
2022-09-09T07:15:24.690Z,1.33
2022-09-09T07:25:33.671Z,1.60
2022-09-09T07:30:37.229Z,1.20
2022-09-09T07:35:42.942Z,2.88
2022-09-09T07:40:46.906Z,1.67
2022-09-09T07:45:51.242Z,1.60
2022-09-09T07:56:12.155Z,1.70
2022-09-09T08:01:18.151Z,1.83
2022-09-09T08:06:26.108Z,2.88
2022-09-09T08:11:34.240Z,2.33
2022-09-09T08:16:42.818Z,3.65
2022-09-09T08:21:50.123Z,2.42
2022-09-09T08:26:54.763Z,1.50
2022-09-09T08:31:59.757Z,2.58
2022-09-09T08:37:04.960Z,1.60
2022-09-09T08:42:29.214Z,2.22
2022-09-09T08:47:42.089Z,3.38
2022-09-09T08:52:53.613Z,2.83
2022-09-09T08:58:02.331Z,1.40
2022-09-09T09:03:13.724Z,1.95
2022-09-09T09:08:28.019Z,2.40
2022-09-09T09:13:43.707Z,2.40
2022-09-09T09:18:48.519Z,4.38
2022-09-09T09:23:59.376Z,1.53
2022-09-09T09:29:12.170Z,2.13
2022-09-09T09:34:16.017Z,5.55
2022-09-09T09:40:10.459Z,2.07
2022-09-09T09:46:19.069Z,2.75
2022-09-09T09:51:24.966Z,3.00
2022-09-09T09:56:32.186Z,2.50
2022-09-09T10:07:21.741Z,1.77
2022-09-09T10:12:43.348Z,1.48
2022-09-09T10:24:11.344Z,2.47
2022-09-09T10:29:48.792Z,1.52
2022-09-09T10:34:59.640Z,1.83
2022-09-09T10:40:19.485Z,1.40
2022-09-09T10:45:35.412Z,1.88
2022-09-09T10:51:03.836Z,1.73
2022-09-09T10:56:12.409Z,2.38
2022-09-09T11:07:31.019Z,2.85
2022-09-09T11:12:41.375Z,2.65
2022-09-09T11:17:50.444Z,1.45
2022-09-09T11:23:01.440Z,1.20
2022-09-09T11:28:23.568Z,1.55
2022-09-09T11:33:51.341Z,2.33
2022-09-09T11:39:03.613Z,2.67
2022-09-09T11:44:14.910Z,1.27
2022-09-09T11:49:32.482Z,2.50
2022-09-09T11:54:49.336Z,3.72
2022-09-09T11:59:54.719Z,2.30
2022-09-09T12:05:04.009Z,2.25
2022-09-09T12:10:38.746Z,3.80
2022-09-09T12:15:51.386Z,1.85
2022-09-09T12:21:05.035Z,2.20
2022-09-09T12:26:51.406Z,2.58
2022-09-09T12:32:10.736Z,3.00
2022-09-09T12:37:23.144Z,3.28
2022-09-09T12:42:29.398Z,3.45
2022-09-09T12:47:47.027Z,1.83
2022-09-09T12:52:53.319Z,4.70
2022-09-09T12:58:01.219Z,2.70
2022-09-09T13:03:21.583Z,2.38
2022-09-09T13:08:26.924Z,1.60
2022-09-09T13:13:36.964Z,2.15
2022-09-09T13:18:47.540Z,2.75
2022-09-09T13:23:54.211Z,2.85
2022-09-09T13:29:19.785Z,1.70
2022-09-09T13:34:30.632Z,2.10
2022-09-09T13:39:36.578Z,1.98
2022-09-09T13:44:44.568Z,1.80
2022-09-09T13:49:49.455Z,2.70
2022-09-09T13:54:55.697Z,2.60
2022-09-09T14:00:05.486Z,1.80
2022-09-09T14:05:10.501Z,2.20
2022-09-09T14:15:21.198Z,2.22
2022-09-09T14:20:25.699Z,2.45
2022-09-09T14:30:36.506Z,2.42
2022-09-09T14:35:42.924Z,2.70
2022-09-09T14:40:49.908Z,2.22
2022-09-09T14:45:56.532Z,3.83
2022-09-09T14:51:07.802Z,1.83
2022-09-09T14:56:14.706Z,2.80
2022-09-09T15:01:22.148Z,2.47
2022-09-09T15:06:27.129Z,2.58
2022-09-09T15:11:34.083Z,3.58
2022-09-09T15:16:40.896Z,2.95
2022-09-09T15:21:45.677Z,2.38
2022-09-09T15:31:57.268Z,2.90
2022-09-09T15:37:01.802Z,4.13
2022-09-09T15:42:07.160Z,3.22
2022-09-09T15:47:14.963Z,6.53
2022-09-09T15:52:19.839Z,4.55
2022-09-09T15:57:24.054Z,3.10
2022-09-09T16:02:29.069Z,2.83
2022-09-09T16:07:33.511Z,11.30
2022-09-09T16:12:37.525Z,5.65
2022-09-09T16:17:43.317Z,9.83
2022-09-09T16:22:46.905Z,8.30
2022-09-09T16:27:51.622Z,7.25
2022-09-09T16:32:56.623Z,7.50
2022-09-09T16:38:01.459Z,9.15
2022-09-09T16:48:11.038Z,5.45
2022-09-09T16:53:15.100Z,8.45
2022-09-09T16:58:19.874Z,9.57
2022-09-09T17:03:25.027Z,10.18
2022-09-09T17:08:29.278Z,12.05
2022-09-09T17:13:34.330Z,8.68
2022-09-09T17:18:41.094Z,10.93
2022-09-09T17:23:44.795Z,9.85
2022-09-09T17:28:49.379Z,10.07
2022-09-09T17:33:54.766Z,7.80
2022-09-09T17:38:59.432Z,10.77
2022-09-09T17:44:03.554Z,12.00
2022-09-09T17:49:11.879Z,13.75
2022-09-09T17:54:18.045Z,18.98
2022-09-09T17:59:22.853Z,15.80
2022-09-09T18:04:28.223Z,18.23
2022-09-09T18:09:33.521Z,18.23
2022-09-09T18:14:37.111Z,12.60
2022-09-09T18:19:43.160Z,13.70
2022-09-09T18:24:48.525Z,15.32
2022-09-09T18:29:52.690Z,15.07
2022-09-09T18:34:59.452Z,16.75
2022-09-09T18:40:04.791Z,13.15
2022-09-09T18:45:09.014Z,15.18
2022-09-09T18:50:14.264Z,18.23
2022-09-09T18:55:18.324Z,13.35
2022-09-09T19:00:22.634Z,14.87
2022-09-09T19:05:28.213Z,13.88
2022-09-09T19:10:32.922Z,20.73
2022-09-09T19:25:51.717Z,11.23
2022-09-09T19:30:57.525Z,12.93
2022-09-09T19:36:05.402Z,14.35
2022-09-09T19:41:12.477Z,12.43
2022-09-09T19:46:17.281Z,16.38
2022-09-09T19:56:29.511Z,15.25
2022-09-09T20:01:40.099Z,13.60
2022-09-09T20:06:46.729Z,15.00
2022-09-09T20:11:52.204Z,13.20
2022-09-09T20:16:57.116Z,14.48
2022-09-09T20:27:08.305Z,11.75
2022-09-09T20:32:12.973Z,14.02
2022-09-09T20:37:18.815Z,10.88
2022-09-09T20:42:22.528Z,14.65
2022-09-09T20:47:26.818Z,14.43
2022-09-09T20:52:31.615Z,13.48
2022-09-09T20:57:38.234Z,25.65
2022-09-09T21:02:41.804Z,14.98
2022-09-09T21:07:47.641Z,16.63
2022-09-09T21:12:51.044Z,12.10
2022-09-09T21:17:55.991Z,15.32
2022-09-09T21:23:01.140Z,9.68
2022-09-09T21:28:06.645Z,13.90
2022-09-09T21:33:11.666Z,11.05
2022-09-09T21:38:19.873Z,14.30
2022-09-09T21:43:23.771Z,12.45
2022-09-09T21:48:27.924Z,13.63
2022-09-09T21:53:33.605Z,12.40
2022-09-09T21:58:38.709Z,12.48
2022-09-09T22:03:42.568Z,12.70
2022-09-09T22:08:48.800Z,17.57
2022-09-09T22:13:54.437Z,14.57
2022-09-09T22:19:01.102Z,13.15
2022-09-09T22:24:07.376Z,14.98
2022-09-09T22:29:12.051Z,13.40
2022-09-09T22:34:15.851Z,15.13
2022-09-09T22:39:21.467Z,18.48
2022-09-09T22:44:25.190Z,16.63
2022-09-09T22:49:29.317Z,14.77
2022-09-09T22:54:34.070Z,16.57
2022-09-09T22:59:39.238Z,15.25
2022-09-09T23:04:42.687Z,14.02
2022-09-09T23:09:48.596Z,18.10
2022-09-09T23:14:54.185Z,15.85
2022-09-09T23:19:58.960Z,19.10
2022-09-09T23:25:05.978Z,18.58
2022-09-09T23:30:12.437Z,15.45
2022-09-09T23:35:16.336Z,19.05
2022-09-09T23:40:21.873Z,12.40
2022-09-09T23:45:26.117Z,18.50
2022-09-09T23:50:30.213Z,16.52
2022-09-09T23:55:35.308Z,16.07
